Terminal Aerodrome Forecast
Issued by NWS

Home | Current Version | Previous Version | Text Only | Print | Product List | Glossary Off
Versions: 1 2 3 4 5 6 7 8 9 10 11 12 13 14 15 16 17 18 19

765
FTUS43 KICT 261135
TAFCNU
TAF
KCNU 261135Z 2612/2712 VRB04KT P6SM OVC040
     FM261400 12007KT P6SM SCT030 OVC250
     FM261600 17009KT P6SM SCT035 BKN250
     FM261800 18013KT P6SM BKN035=

USA.gov is the U.S. government's official web portal to all federal, state and local government web resources and services.